sensor_id;sensor_type;location;lat;lon;timestamp;temperature;humidity
10121;DHT22;5100;45.176;5.714;2022-11-12T00:00:46;13.90;76.30
10121;DHT22;5100;45.176;5.714;2022-11-12T00:03:32;13.90;76.20
10121;DHT22;5100;45.176;5.714;2022-11-12T00:06:16;13.80;76.30
10121;DHT22;5100;45.176;5.714;2022-11-12T00:09:01;13.80;76.30
10121;DHT22;5100;45.176;5.714;2022-11-12T00:11:45;13.80;76.30
10121;DHT22;5100;45.176;5.714;2022-11-12T00:14:29;13.80;76.00
10121;DHT22;5100;45.176;5.714;2022-11-12T00:17:14;13.80;76.00
10121;DHT22;5100;45.176;5.714;2022-11-12T00:19:58;13.80;76.00
10121;DHT22;5100;45.176;5.714;2022-11-12T00:22:43;13.80;76.10
10121;DHT22;5100;45.176;5.714;2022-11-12T00:25:28;13.80;76.00
10121;DHT22;5100;45.176;5.714;2022-11-12T00:28:12;13.80;75.90
10121;DHT22;5100;45.176;5.714;2022-11-12T00:30:57;13.80;75.90
10121;DHT22;5100;45.176;5.714;2022-11-12T00:33:42;13.70;75.90
10121;DHT22;5100;45.176;5.714;2022-11-12T00:36:26;13.70;75.80
10121;DHT22;5100;45.176;5.714;2022-11-12T00:39:11;13.70;75.90
10121;DHT22;5100;45.176;5.714;2022-11-12T00:41:55;13.70;75.90
10121;DHT22;5100;45.176;5.714;2022-11-12T00:44:40;13.70;75.80
10121;DHT22;5100;45.176;5.714;2022-11-12T00:47:24;13.70;75.40
10121;DHT22;5100;45.176;5.714;2022-11-12T00:50:09;13.70;75.30
10121;DHT22;5100;45.176;5.714;2022-11-12T00:52:54;13.60;75.40
10121;DHT22;5100;45.176;5.714;2022-11-12T00:55:38;13.60;75.40
10121;DHT22;5100;45.176;5.714;2022-11-12T00:58:23;13.60;75.40
10121;DHT22;5100;45.176;5.714;2022-11-12T01:01:13;13.60;75.40
10121;DHT22;5100;45.176;5.714;2022-11-12T01:03:58;13.60;75.40
10121;DHT22;5100;45.176;5.714;2022-11-12T01:06:43;13.60;75.30
10121;DHT22;5100;45.176;5.714;2022-11-12T01:09:27;13.50;75.40
10121;DHT22;5100;45.176;5.714;2022-11-12T01:12:12;13.50;75.50
10121;DHT22;5100;45.176;5.714;2022-11-12T01:14:56;13.50;75.40
10121;DHT22;5100;45.176;5.714;2022-11-12T01:17:40;13.50;75.40
10121;DHT22;5100;45.176;5.714;2022-11-12T01:20:25;13.50;75.40
10121;DHT22;5100;45.176;5.714;2022-11-12T01:23:09;13.40;75.50
10121;DHT22;5100;45.176;5.714;2022-11-12T01:25:54;13.40;75.60
10121;DHT22;5100;45.176;5.714;2022-11-12T01:28:39;13.40;75.50
10121;DHT22;5100;45.176;5.714;2022-11-12T01:31:30;13.40;75.60
10121;DHT22;5100;45.176;5.714;2022-11-12T01:34:14;13.40;75.70
10121;DHT22;5100;45.176;5.714;2022-11-12T01:36:59;13.40;75.60
10121;DHT22;5100;45.176;5.714;2022-11-12T01:39:43;13.40;75.70
10121;DHT22;5100;45.176;5.714;2022-11-12T01:42:31;13.40;75.50
10121;DHT22;5100;45.176;5.714;2022-11-12T01:45:15;13.40;75.60
10121;DHT22;5100;45.176;5.714;2022-11-12T01:48:01;13.30;75.60
10121;DHT22;5100;45.176;5.714;2022-11-12T01:50:46;13.30;75.50
10121;DHT22;5100;45.176;5.714;2022-11-12T01:53:39;13.30;75.50
10121;DHT22;5100;45.176;5.714;2022-11-12T01:56:26;13.30;75.30
10121;DHT22;5100;45.176;5.714;2022-11-12T01:59:18;13.30;75.10
10121;DHT22;5100;45.176;5.714;2022-11-12T02:02:04;13.30;75.20
10121;DHT22;5100;45.176;5.714;2022-11-12T02:04:49;13.30;75.10
10121;DHT22;5100;45.176;5.714;2022-11-12T02:07:36;13.20;75.00
10121;DHT22;5100;45.176;5.714;2022-11-12T02:10:21;13.20;75.10
10121;DHT22;5100;45.176;5.714;2022-11-12T02:13:06;13.20;75.00
10121;DHT22;5100;45.176;5.714;2022-11-12T02:16:10;13.20;74.90
10121;DHT22;5100;45.176;5.714;2022-11-12T02:18:54;13.20;75.00
10121;DHT22;5100;45.176;5.714;2022-11-12T02:21:39;13.20;75.10
10121;DHT22;5100;45.176;5.714;2022-11-12T02:27:10;13.10;74.80
10121;DHT22;5100;45.176;5.714;2022-11-12T02:29:55;13.10;74.90
10121;DHT22;5100;45.176;5.714;2022-11-12T02:32:40;13.10;74.70
10121;DHT22;5100;45.176;5.714;2022-11-12T02:35:24;13.10;74.70
10121;DHT22;5100;45.176;5.714;2022-11-12T02:38:09;13.10;74.80
10121;DHT22;5100;45.176;5.714;2022-11-12T02:40:53;13.10;75.00
10121;DHT22;5100;45.176;5.714;2022-11-12T02:43:38;13.10;75.00
10121;DHT22;5100;45.176;5.714;2022-11-12T02:46:23;13.10;75.00
10121;DHT22;5100;45.176;5.714;2022-11-12T02:49:07;13.10;75.10
10121;DHT22;5100;45.176;5.714;2022-11-12T02:51:52;13.10;75.10
10121;DHT22;5100;45.176;5.714;2022-11-12T02:54:36;13.00;75.00
10121;DHT22;5100;45.176;5.714;2022-11-12T02:57:20;13.00;75.10
10121;DHT22;5100;45.176;5.714;2022-11-12T03:00:07;13.00;75.00
10121;DHT22;5100;45.176;5.714;2022-11-12T03:02:52;13.00;74.90
10121;DHT22;5100;45.176;5.714;2022-11-12T03:05:44;13.00;74.90
10121;DHT22;5100;45.176;5.714;2022-11-12T03:08:29;13.00;74.90
10121;DHT22;5100;45.176;5.714;2022-11-12T03:11:15;13.00;74.90
10121;DHT22;5100;45.176;5.714;2022-11-12T03:14:01;13.00;74.80
10121;DHT22;5100;45.176;5.714;2022-11-12T03:16:45;13.00;74.80
10121;DHT22;5100;45.176;5.714;2022-11-12T03:19:30;13.00;74.80
10121;DHT22;5100;45.176;5.714;2022-11-12T03:22:14;13.00;74.70
10121;DHT22;5100;45.176;5.714;2022-11-12T03:24:59;13.00;74.80
10121;DHT22;5100;45.176;5.714;2022-11-12T03:27:43;12.90;74.60
10121;DHT22;5100;45.176;5.714;2022-11-12T03:30:29;12.90;74.60
10121;DHT22;5100;45.176;5.714;2022-11-12T03:33:15;12.90;74.60
10121;DHT22;5100;45.176;5.714;2022-11-12T03:36:00;12.90;74.60
10121;DHT22;5100;45.176;5.714;2022-11-12T03:38:45;12.90;74.60
10121;DHT22;5100;45.176;5.714;2022-11-12T03:41:29;12.90;74.40
10121;DHT22;5100;45.176;5.714;2022-11-12T03:44:13;12.90;74.60
10121;DHT22;5100;45.176;5.714;2022-11-12T03:46:58;12.90;74.60
10121;DHT22;5100;45.176;5.714;2022-11-12T03:49:42;12.90;75.00
10121;DHT22;5100;45.176;5.714;2022-11-12T03:52:27;12.80;75.10
10121;DHT22;5100;45.176;5.714;2022-11-12T03:55:13;12.80;75.20
10121;DHT22;5100;45.176;5.714;2022-11-12T03:57:58;12.80;75.20
10121;DHT22;5100;45.176;5.714;2022-11-12T04:00:43;12.80;75.10
10121;DHT22;5100;45.176;5.714;2022-11-12T04:03:28;12.80;75.00
10121;DHT22;5100;45.176;5.714;2022-11-12T04:06:12;12.80;75.00
10121;DHT22;5100;45.176;5.714;2022-11-12T04:09:16;12.80;74.90
10121;DHT22;5100;45.176;5.714;2022-11-12T04:12:00;12.80;74.90
10121;DHT22;5100;45.176;5.714;2022-11-12T04:15:05;12.80;74.80
10121;DHT22;5100;45.176;5.714;2022-11-12T04:17:49;12.80;74.90
10121;DHT22;5100;45.176;5.714;2022-11-12T04:20:53;12.80;74.70
10121;DHT22;5100;45.176;5.714;2022-11-12T04:23:56;12.80;74.70
10121;DHT22;5100;45.176;5.714;2022-11-12T04:26:41;12.80;74.60
10121;DHT22;5100;45.176;5.714;2022-11-12T04:29:25;12.80;74.70
10121;DHT22;5100;45.176;5.714;2022-11-12T04:32:29;12.70;74.70
10121;DHT22;5100;45.176;5.714;2022-11-12T04:35:15;12.70;74.60
10121;DHT22;5100;45.176;5.714;2022-11-12T04:37:59;12.70;74.60
10121;DHT22;5100;45.176;5.714;2022-11-12T04:40:44;12.70;74.60
10121;DHT22;5100;45.176;5.714;2022-11-12T04:43:47;12.70;74.20
10121;DHT22;5100;45.176;5.714;2022-11-12T04:46:50;12.70;74.40
10121;DHT22;5100;45.176;5.714;2022-11-12T04:49:35;12.70;74.10
10121;DHT22;5100;45.176;5.714;2022-11-12T04:52:19;12.70;74.00
10121;DHT22;5100;45.176;5.714;2022-11-12T04:55:04;12.70;74.10
10121;DHT22;5100;45.176;5.714;2022-11-12T04:57:49;12.70;74.00
10121;DHT22;5100;45.176;5.714;2022-11-12T05:00:33;12.60;74.10
10121;DHT22;5100;45.176;5.714;2022-11-12T05:03:18;12.60;74.20
10121;DHT22;5100;45.176;5.714;2022-11-12T05:06:04;12.60;74.10
10121;DHT22;5100;45.176;5.714;2022-11-12T05:09:09;12.60;74.10
10121;DHT22;5100;45.176;5.714;2022-11-12T05:11:54;12.60;74.20
10121;DHT22;5100;45.176;5.714;2022-11-12T05:14:38;12.60;74.40
10121;DHT22;5100;45.176;5.714;2022-11-12T05:17:23;12.60;74.40
10121;DHT22;5100;45.176;5.714;2022-11-12T05:20:08;12.60;74.50
10121;DHT22;5100;45.176;5.714;2022-11-12T05:22:53;12.50;74.40
10121;DHT22;5100;45.176;5.714;2022-11-12T05:25:37;12.50;74.40
10121;DHT22;5100;45.176;5.714;2022-11-12T05:28:22;12.50;74.30
10121;DHT22;5100;45.176;5.714;2022-11-12T05:31:06;12.50;74.30
10121;DHT22;5100;45.176;5.714;2022-11-12T05:33:51;12.50;74.30
10121;DHT22;5100;45.176;5.714;2022-11-12T05:36:35;12.50;74.30
10121;DHT22;5100;45.176;5.714;2022-11-12T05:39:20;12.50;74.20
10121;DHT22;5100;45.176;5.714;2022-11-12T05:42:05;12.50;74.10
10121;DHT22;5100;45.176;5.714;2022-11-12T05:44:49;12.50;74.20
10121;DHT22;5100;45.176;5.714;2022-11-12T05:47:33;12.50;74.10
10121;DHT22;5100;45.176;5.714;2022-11-12T05:50:18;12.40;74.10
10121;DHT22;5100;45.176;5.714;2022-11-12T05:53:02;12.40;74.10
10121;DHT22;5100;45.176;5.714;2022-11-12T05:55:47;12.40;73.90
10121;DHT22;5100;45.176;5.714;2022-11-12T05:58:32;12.40;74.00
10121;DHT22;5100;45.176;5.714;2022-11-12T06:01:16;12.40;74.00
10121;DHT22;5100;45.176;5.714;2022-11-12T06:04:01;12.40;74.10
10121;DHT22;5100;45.176;5.714;2022-11-12T06:06:45;12.40;74.10
10121;DHT22;5100;45.176;5.714;2022-11-12T06:09:29;12.40;74.00
10121;DHT22;5100;45.176;5.714;2022-11-12T06:12:14;12.40;74.10
10121;DHT22;5100;45.176;5.714;2022-11-12T06:14:58;12.40;74.10
10121;DHT22;5100;45.176;5.714;2022-11-12T06:17:43;12.30;74.10
10121;DHT22;5100;45.176;5.714;2022-11-12T06:20:27;12.30;74.00
10121;DHT22;5100;45.176;5.714;2022-11-12T06:23:11;12.30;74.00
10121;DHT22;5100;45.176;5.714;2022-11-12T06:25:56;12.30;74.00
10121;DHT22;5100;45.176;5.714;2022-11-12T06:28:40;12.30;73.90
10121;DHT22;5100;45.176;5.714;2022-11-12T06:31:25;12.30;73.90
10121;DHT22;5100;45.176;5.714;2022-11-12T06:34:09;12.30;73.80
10121;DHT22;5100;45.176;5.714;2022-11-12T06:36:55;12.30;73.90
10121;DHT22;5100;45.176;5.714;2022-11-12T06:39:39;12.30;74.00
10121;DHT22;5100;45.176;5.714;2022-11-12T06:42:24;12.30;74.10
10121;DHT22;5100;45.176;5.714;2022-11-12T06:45:08;12.30;74.20
10121;DHT22;5100;45.176;5.714;2022-11-12T06:47:57;12.30;74.20
10121;DHT22;5100;45.176;5.714;2022-11-12T06:50:42;12.30;74.10
10121;DHT22;5100;45.176;5.714;2022-11-12T06:53:26;12.30;73.90
10121;DHT22;5100;45.176;5.714;2022-11-12T06:56:12;12.30;74.00
10121;DHT22;5100;45.176;5.714;2022-11-12T06:58:56;12.30;74.00
10121;DHT22;5100;45.176;5.714;2022-11-12T07:01:41;12.30;74.00
10121;DHT22;5100;45.176;5.714;2022-11-12T07:04:25;12.30;73.90
10121;DHT22;5100;45.176;5.714;2022-11-12T07:07:10;12.30;73.80
10121;DHT22;5100;45.176;5.714;2022-11-12T07:09:54;12.30;73.90
10121;DHT22;5100;45.176;5.714;2022-11-12T07:12:39;12.30;73.90
10121;DHT22;5100;45.176;5.714;2022-11-12T07:15:23;12.30;73.90
10121;DHT22;5100;45.176;5.714;2022-11-12T07:18:07;12.30;73.90
10121;DHT22;5100;45.176;5.714;2022-11-12T07:20:57;12.30;73.90
10121;DHT22;5100;45.176;5.714;2022-11-12T07:23:42;12.30;73.90
10121;DHT22;5100;45.176;5.714;2022-11-12T07:26:26;12.30;73.90
10121;DHT22;5100;45.176;5.714;2022-11-12T07:29:11;12.40;73.80
10121;DHT22;5100;45.176;5.714;2022-11-12T07:31:55;12.40;73.80
10121;DHT22;5100;45.176;5.714;2022-11-12T07:34:40;12.40;73.80
10121;DHT22;5100;45.176;5.714;2022-11-12T07:37:24;12.40;73.60
10121;DHT22;5100;45.176;5.714;2022-11-12T07:40:09;12.40;73.70
10121;DHT22;5100;45.176;5.714;2022-11-12T07:42:53;12.40;73.70
10121;DHT22;5100;45.176;5.714;2022-11-12T07:45:38;12.40;73.80
10121;DHT22;5100;45.176;5.714;2022-11-12T07:48:22;12.50;73.70
10121;DHT22;5100;45.176;5.714;2022-11-12T07:53:58;12.50;73.70
10121;DHT22;5100;45.176;5.714;2022-11-12T07:56:42;12.50;73.70
10121;DHT22;5100;45.176;5.714;2022-11-12T07:59:27;12.50;73.70
10121;DHT22;5100;45.176;5.714;2022-11-12T08:02:11;12.60;73.60
10121;DHT22;5100;45.176;5.714;2022-11-12T08:04:56;12.60;73.70
10121;DHT22;5100;45.176;5.714;2022-11-12T08:07:40;12.60;73.80
10121;DHT22;5100;45.176;5.714;2022-11-12T08:10:24;12.60;73.90
10121;DHT22;5100;45.176;5.714;2022-11-12T08:13:09;12.60;73.70
10121;DHT22;5100;45.176;5.714;2022-11-12T08:15:59;12.70;73.70
10121;DHT22;5100;45.176;5.714;2022-11-12T08:18:44;12.70;73.70
10121;DHT22;5100;45.176;5.714;2022-11-12T08:21:28;12.70;73.80
10121;DHT22;5100;45.176;5.714;2022-11-12T08:24:12;12.70;73.90
10121;DHT22;5100;45.176;5.714;2022-11-12T08:26:57;12.80;74.10
10121;DHT22;5100;45.176;5.714;2022-11-12T08:29:42;12.80;74.20
10121;DHT22;5100;45.176;5.714;2022-11-12T08:32:26;12.80;74.50
10121;DHT22;5100;45.176;5.714;2022-11-12T08:35:10;12.90;74.60
10121;DHT22;5100;45.176;5.714;2022-11-12T08:38:03;12.90;74.00
10121;DHT22;5100;45.176;5.714;2022-11-12T08:40:47;12.90;73.90
10121;DHT22;5100;45.176;5.714;2022-11-12T08:43:32;13.00;73.70
10121;DHT22;5100;45.176;5.714;2022-11-12T08:46:16;13.00;73.50
10121;DHT22;5100;45.176;5.714;2022-11-12T08:49:01;13.00;73.20
10121;DHT22;5100;45.176;5.714;2022-11-12T08:51:45;13.10;73.20
10121;DHT22;5100;45.176;5.714;2022-11-12T08:54:30;13.10;73.10
10121;DHT22;5100;45.176;5.714;2022-11-12T08:57:15;13.10;73.10
10121;DHT22;5100;45.176;5.714;2022-11-12T08:59:59;13.20;73.00
10121;DHT22;5100;45.176;5.714;2022-11-12T09:02:43;13.20;73.00
10121;DHT22;5100;45.176;5.714;2022-11-12T09:05:28;13.20;73.00
10121;DHT22;5100;45.176;5.714;2022-11-12T09:08:18;13.20;73.00
10121;DHT22;5100;45.176;5.714;2022-11-12T09:11:03;13.30;73.10
10121;DHT22;5100;45.176;5.714;2022-11-12T09:13:51;13.30;73.20
10121;DHT22;5100;45.176;5.714;2022-11-12T09:16:36;13.30;73.20
10121;DHT22;5100;45.176;5.714;2022-11-12T09:19:20;13.30;73.00
10121;DHT22;5100;45.176;5.714;2022-11-12T09:22:05;13.40;72.60
10121;DHT22;5100;45.176;5.714;2022-11-12T09:24:49;13.40;72.60
10121;DHT22;5100;45.176;5.714;2022-11-12T09:27:33;13.40;72.50
10121;DHT22;5100;45.176;5.714;2022-11-12T09:30:18;13.40;72.60
10121;DHT22;5100;45.176;5.714;2022-11-12T09:33:03;13.40;72.20
10121;DHT22;5100;45.176;5.714;2022-11-12T09:35:49;13.40;72.30
10121;DHT22;5100;45.176;5.714;2022-11-12T09:38:33;13.50;71.90
10121;DHT22;5100;45.176;5.714;2022-11-12T09:41:38;13.50;71.90
10121;DHT22;5100;45.176;5.714;2022-11-12T09:44:23;13.50;72.30
10121;DHT22;5100;45.176;5.714;2022-11-12T09:47:22;13.50;72.00
10121;DHT22;5100;45.176;5.714;2022-11-12T09:53:21;13.60;71.60
10121;DHT22;5100;45.176;5.714;2022-11-12T09:56:11;13.60;71.70
10121;DHT22;5100;45.176;5.714;2022-11-12T09:58:56;13.60;71.70
10121;DHT22;5100;45.176;5.714;2022-11-12T10:08:10;13.70;71.80
10121;DHT22;5100;45.176;5.714;2022-11-12T10:14:17;13.70;71.80
10121;DHT22;5100;45.176;5.714;2022-11-12T10:17:33;13.80;71.90
10121;DHT22;5100;45.176;5.714;2022-11-12T10:20:28;13.80;72.00
10121;DHT22;5100;45.176;5.714;2022-11-12T10:26:13;13.80;72.10
10121;DHT22;5100;45.176;5.714;2022-11-12T10:31:45;13.90;72.10
10121;DHT22;5100;45.176;5.714;2022-11-12T10:34:30;13.90;72.30
10121;DHT22;5100;45.176;5.714;2022-11-12T10:37:28;14.00;72.30
10121;DHT22;5100;45.176;5.714;2022-11-12T10:40:34;14.00;72.10
10121;DHT22;5100;45.176;5.714;2022-11-12T10:43:21;14.00;71.90
10121;DHT22;5100;45.176;5.714;2022-11-12T10:46:18;14.10;71.80
10121;DHT22;5100;45.176;5.714;2022-11-12T10:51:58;14.10;71.80
10121;DHT22;5100;45.176;5.714;2022-11-12T10:54:42;14.10;71.60
10121;DHT22;5100;45.176;5.714;2022-11-12T10:57:27;14.10;71.50
10121;DHT22;5100;45.176;5.714;2022-11-12T11:02:56;14.20;71.40
10121;DHT22;5100;45.176;5.714;2022-11-12T11:09:27;14.30;71.20
10121;DHT22;5100;45.176;5.714;2022-11-12T11:12:22;14.30;71.20
10121;DHT22;5100;45.176;5.714;2022-11-12T11:15:22;14.30;71.30
10121;DHT22;5100;45.176;5.714;2022-11-12T11:18:10;14.40;71.00
10121;DHT22;5100;45.176;5.714;2022-11-12T11:29:52;14.50;71.50
10121;DHT22;5100;45.176;5.714;2022-11-12T11:36:04;14.50;71.60
10121;DHT22;5100;45.176;5.714;2022-11-12T11:39:09;14.60;71.60
10121;DHT22;5100;45.176;5.714;2022-11-12T11:55:19;14.70;71.30
10121;DHT22;5100;45.176;5.714;2022-11-12T12:01:20;14.80;71.40
10121;DHT22;5100;45.176;5.714;2022-11-12T12:04:26;14.80;71.20
10121;DHT22;5100;45.176;5.714;2022-11-12T12:10:24;14.80;70.90
10121;DHT22;5100;45.176;5.714;2022-11-12T12:16:25;14.90;70.60
10121;DHT22;5100;45.176;5.714;2022-11-12T12:19:30;14.90;70.70
10121;DHT22;5100;45.176;5.714;2022-11-12T12:22:24;14.90;69.80
10121;DHT22;5100;45.176;5.714;2022-11-12T12:25:26;14.90;69.20
10121;DHT22;5100;45.176;5.714;2022-11-12T12:31:06;15.00;69.60
10121;DHT22;5100;45.176;5.714;2022-11-12T12:33:52;15.00;69.40
10121;DHT22;5100;45.176;5.714;2022-11-12T12:36:40;15.00;69.00
10121;DHT22;5100;45.176;5.714;2022-11-12T12:39:28;15.00;68.70
10121;DHT22;5100;45.176;5.714;2022-11-12T12:45:23;15.10;69.20
10121;DHT22;5100;45.176;5.714;2022-11-12T12:48:31;15.10;69.00
10121;DHT22;5100;45.176;5.714;2022-11-12T12:51:17;15.10;68.80
10121;DHT22;5100;45.176;5.714;2022-11-12T12:54:02;15.10;68.90
10121;DHT22;5100;45.176;5.714;2022-11-12T12:56:47;15.10;69.00
10121;DHT22;5100;45.176;5.714;2022-11-12T12:59:31;15.10;68.70
10121;DHT22;5100;45.176;5.714;2022-11-12T13:02:21;15.10;68.40
10121;DHT22;5100;45.176;5.714;2022-11-12T13:05:22;15.10;68.10
10121;DHT22;5100;45.176;5.714;2022-11-12T13:08:28;15.10;68.30
10121;DHT22;5100;45.176;5.714;2022-11-12T13:14:49;15.10;68.30
10121;DHT22;5100;45.176;5.714;2022-11-12T13:18:00;15.10;68.40
10121;DHT22;5100;45.176;5.714;2022-11-12T13:21:06;15.10;68.50
10121;DHT22;5100;45.176;5.714;2022-11-12T13:23:55;15.10;68.60
10121;DHT22;5100;45.176;5.714;2022-11-12T13:26:58;15.10;68.60
10121;DHT22;5100;45.176;5.714;2022-11-12T13:29:43;15.10;68.80
10121;DHT22;5100;45.176;5.714;2022-11-12T13:32:38;15.10;69.00
10121;DHT22;5100;45.176;5.714;2022-11-12T13:35:24;15.10;69.00
10121;DHT22;5100;45.176;5.714;2022-11-12T13:38:10;15.10;68.80
10121;DHT22;5100;45.176;5.714;2022-11-12T13:41:14;15.10;68.70
10121;DHT22;5100;45.176;5.714;2022-11-12T13:44:04;15.10;68.70
10121;DHT22;5100;45.176;5.714;2022-11-12T13:46:49;15.10;68.80
10121;DHT22;5100;45.176;5.714;2022-11-12T13:49:36;15.10;68.70
10121;DHT22;5100;45.176;5.714;2022-11-12T13:52:21;15.10;68.70
10121;DHT22;5100;45.176;5.714;2022-11-12T13:55:17;15.10;68.70
10121;DHT22;5100;45.176;5.714;2022-11-12T13:58:01;15.10;68.60
10121;DHT22;5100;45.176;5.714;2022-11-12T14:00:57;15.10;67.90
10121;DHT22;5100;45.176;5.714;2022-11-12T14:03:46;15.10;67.50
10121;DHT22;5100;45.176;5.714;2022-11-12T14:06:36;15.10;67.30
10121;DHT22;5100;45.176;5.714;2022-11-12T14:09:27;15.10;66.70
10121;DHT22;5100;45.176;5.714;2022-11-12T14:12:29;15.20;66.60
10121;DHT22;5100;45.176;5.714;2022-11-12T14:22:17;15.20;65.60
10121;DHT22;5100;45.176;5.714;2022-11-12T14:25:02;15.20;66.30
10121;DHT22;5100;45.176;5.714;2022-11-12T14:27:49;15.20;66.80
10121;DHT22;5100;45.176;5.714;2022-11-12T14:30:42;15.20;67.10
10121;DHT22;5100;45.176;5.714;2022-11-12T14:33:29;15.20;66.70
10121;DHT22;5100;45.176;5.714;2022-11-12T14:36:14;15.20;66.60
10121;DHT22;5100;45.176;5.714;2022-11-12T14:39:01;15.30;66.60
10121;DHT22;5100;45.176;5.714;2022-11-12T14:41:46;15.30;66.40
10121;DHT22;5100;45.176;5.714;2022-11-12T14:44:35;15.30;66.60
10121;DHT22;5100;45.176;5.714;2022-11-12T14:47:20;15.30;67.20
10121;DHT22;5100;45.176;5.714;2022-11-12T14:50:41;15.30;67.50
10121;DHT22;5100;45.176;5.714;2022-11-12T14:53:24;15.30;67.80
10121;DHT22;5100;45.176;5.714;2022-11-12T14:56:17;15.30;68.20
10121;DHT22;5100;45.176;5.714;2022-11-12T14:59:05;15.40;68.10
10121;DHT22;5100;45.176;5.714;2022-11-12T15:02:08;15.40;68.10
10121;DHT22;5100;45.176;5.714;2022-11-12T15:05:02;15.40;68.00
10121;DHT22;5100;45.176;5.714;2022-11-12T15:07:52;15.40;68.10
10121;DHT22;5100;45.176;5.714;2022-11-12T15:10:39;15.40;68.20
10121;DHT22;5100;45.176;5.714;2022-11-12T15:13:25;15.40;68.50
10121;DHT22;5100;45.176;5.714;2022-11-12T15:16:16;15.30;68.80
10121;DHT22;5100;45.176;5.714;2022-11-12T15:19:15;15.40;69.00
10121;DHT22;5100;45.176;5.714;2022-11-12T15:22:01;15.30;69.20
10121;DHT22;5100;45.176;5.714;2022-11-12T15:24:47;15.30;69.40
10121;DHT22;5100;45.176;5.714;2022-11-12T15:27:41;15.30;69.70
10121;DHT22;5100;45.176;5.714;2022-11-12T15:30:27;15.30;69.70
10121;DHT22;5100;45.176;5.714;2022-11-12T15:33:15;15.30;69.90
10121;DHT22;5100;45.176;5.714;2022-11-12T15:36:01;15.30;70.10
10121;DHT22;5100;45.176;5.714;2022-11-12T15:38:50;15.30;70.20
10121;DHT22;5100;45.176;5.714;2022-11-12T15:41:35;15.30;70.40
10121;DHT22;5100;45.176;5.714;2022-11-12T15:44:20;15.30;70.20
10121;DHT22;5100;45.176;5.714;2022-11-12T15:47:04;15.20;70.10
10121;DHT22;5100;45.176;5.714;2022-11-12T15:49:50;15.20;70.00
10121;DHT22;5100;45.176;5.714;2022-11-12T15:52:35;15.20;70.00
10121;DHT22;5100;45.176;5.714;2022-11-12T15:55:20;15.20;69.90
10121;DHT22;5100;45.176;5.714;2022-11-12T15:58:17;15.20;69.90
10121;DHT22;5100;45.176;5.714;2022-11-12T16:01:03;15.20;70.10
10121;DHT22;5100;45.176;5.714;2022-11-12T16:03:51;15.20;70.30
10121;DHT22;5100;45.176;5.714;2022-11-12T16:06:35;15.20;70.50
10121;DHT22;5100;45.176;5.714;2022-11-12T16:09:20;15.20;70.90
10121;DHT22;5100;45.176;5.714;2022-11-12T16:12:04;15.10;71.20
10121;DHT22;5100;45.176;5.714;2022-11-12T16:14:49;15.10;71.50
10121;DHT22;5100;45.176;5.714;2022-11-12T16:17:33;15.10;72.00
10121;DHT22;5100;45.176;5.714;2022-11-12T16:20:20;15.10;72.50
10121;DHT22;5100;45.176;5.714;2022-11-12T16:23:05;15.10;72.30
10121;DHT22;5100;45.176;5.714;2022-11-12T16:25:49;15.10;72.30
10121;DHT22;5100;45.176;5.714;2022-11-12T16:28:34;15.10;72.70
10121;DHT22;5100;45.176;5.714;2022-11-12T16:31:19;15.10;72.80
10121;DHT22;5100;45.176;5.714;2022-11-12T16:34:04;15.10;72.90
10121;DHT22;5100;45.176;5.714;2022-11-12T16:36:49;15.10;72.90
10121;DHT22;5100;45.176;5.714;2022-11-12T16:39:33;15.00;73.00
10121;DHT22;5100;45.176;5.714;2022-11-12T16:42:18;15.00;73.00
10121;DHT22;5100;45.176;5.714;2022-11-12T16:45:02;15.00;73.20
10121;DHT22;5100;45.176;5.714;2022-11-12T16:47:52;15.00;73.40
10121;DHT22;5100;45.176;5.714;2022-11-12T16:50:37;15.00;73.50
10121;DHT22;5100;45.176;5.714;2022-11-12T16:53:21;15.00;73.50
10121;DHT22;5100;45.176;5.714;2022-11-12T16:56:20;14.90;73.50
10121;DHT22;5100;45.176;5.714;2022-11-12T16:59:05;14.90;73.70
10121;DHT22;5100;45.176;5.714;2022-11-12T17:01:49;14.90;73.90
10121;DHT22;5100;45.176;5.714;2022-11-12T17:04:34;14.90;74.00
10121;DHT22;5100;45.176;5.714;2022-11-12T17:07:18;14.90;74.10
10121;DHT22;5100;45.176;5.714;2022-11-12T17:10:03;14.90;74.20
10121;DHT22;5100;45.176;5.714;2022-11-12T17:12:48;14.90;74.20
10121;DHT22;5100;45.176;5.714;2022-11-12T17:15:33;14.90;74.20
10121;DHT22;5100;45.176;5.714;2022-11-12T17:18:17;14.90;74.40
10121;DHT22;5100;45.176;5.714;2022-11-12T17:21:16;14.90;74.50
10121;DHT22;5100;45.176;5.714;2022-11-12T17:24:01;14.80;74.60
10121;DHT22;5100;45.176;5.714;2022-11-12T17:26:45;14.80;74.80
10121;DHT22;5100;45.176;5.714;2022-11-12T17:29:30;14.80;74.90
10121;DHT22;5100;45.176;5.714;2022-11-12T17:32:14;14.80;75.00
10121;DHT22;5100;45.176;5.714;2022-11-12T17:34:59;14.80;75.20
10121;DHT22;5100;45.176;5.714;2022-11-12T17:37:43;14.80;75.20
10121;DHT22;5100;45.176;5.714;2022-11-12T17:40:28;14.80;75.40
10121;DHT22;5100;45.176;5.714;2022-11-12T17:43:13;14.80;75.30
10121;DHT22;5100;45.176;5.714;2022-11-12T17:45:57;14.80;75.40
10121;DHT22;5100;45.176;5.714;2022-11-12T17:48:41;14.80;75.60
10121;DHT22;5100;45.176;5.714;2022-11-12T17:51:27;14.80;75.80
10121;DHT22;5100;45.176;5.714;2022-11-12T17:54:12;14.80;75.80
10121;DHT22;5100;45.176;5.714;2022-11-12T17:56:57;14.80;75.80
10121;DHT22;5100;45.176;5.714;2022-11-12T17:59:41;14.80;75.60
10121;DHT22;5100;45.176;5.714;2022-11-12T18:02:26;14.80;75.50
10121;DHT22;5100;45.176;5.714;2022-11-12T18:05:11;14.80;75.30
10121;DHT22;5100;45.176;5.714;2022-11-12T18:07:55;14.80;75.30
10121;DHT22;5100;45.176;5.714;2022-11-12T18:10:40;14.80;75.30
10121;DHT22;5100;45.176;5.714;2022-11-12T18:13:26;14.80;75.20
10121;DHT22;5100;45.176;5.714;2022-11-12T18:16:21;14.80;75.30
10121;DHT22;5100;45.176;5.714;2022-11-12T18:19:07;14.80;75.40
10121;DHT22;5100;45.176;5.714;2022-11-12T18:21:54;14.80;75.40
10121;DHT22;5100;45.176;5.714;2022-11-12T18:24:40;14.80;75.30
10121;DHT22;5100;45.176;5.714;2022-11-12T18:27:25;14.80;75.20
10121;DHT22;5100;45.176;5.714;2022-11-12T18:30:10;14.80;75.20
10121;DHT22;5100;45.176;5.714;2022-11-12T18:32:55;14.70;75.40
10121;DHT22;5100;45.176;5.714;2022-11-12T18:35:39;14.80;75.50
10121;DHT22;5100;45.176;5.714;2022-11-12T18:38:24;14.80;75.50
10121;DHT22;5100;45.176;5.714;2022-11-12T18:41:13;14.80;75.50
10121;DHT22;5100;45.176;5.714;2022-11-12T18:43:59;14.80;75.50
10121;DHT22;5100;45.176;5.714;2022-11-12T18:46:44;14.70;75.50
10121;DHT22;5100;45.176;5.714;2022-11-12T18:49:28;14.70;75.60
10121;DHT22;5100;45.176;5.714;2022-11-12T18:52:13;14.70;75.60
10121;DHT22;5100;45.176;5.714;2022-11-12T18:54:57;14.70;75.40
10121;DHT22;5100;45.176;5.714;2022-11-12T18:57:42;14.70;75.40
10121;DHT22;5100;45.176;5.714;2022-11-12T19:00:26;14.70;75.40
10121;DHT22;5100;45.176;5.714;2022-11-12T19:03:11;14.70;75.50
10121;DHT22;5100;45.176;5.714;2022-11-12T19:05:59;14.70;75.50
10121;DHT22;5100;45.176;5.714;2022-11-12T19:08:43;14.70;75.60
10121;DHT22;5100;45.176;5.714;2022-11-12T19:11:28;14.70;75.60
10121;DHT22;5100;45.176;5.714;2022-11-12T19:14:13;14.70;75.80
10121;DHT22;5100;45.176;5.714;2022-11-12T19:16:57;14.70;76.10